sensor_id;sensor_type;location;lat;lon;timestamp;pressure;altitude;pressure_sealevel;temperature;humidity
72409;BME280;60402;48.082;11.628;2023-01-28T00:00:08;95656.84;;;-2.13;100.00
72409;BME280;60402;48.082;11.628;2023-01-28T00:02:37;95638.22;;;-2.16;100.00
72409;BME280;60402;48.082;11.628;2023-01-28T00:05:03;95665.78;;;-1.88;100.00
72409;BME280;60402;48.082;11.628;2023-01-28T00:07:29;95661.38;;;-1.89;100.00
72409;BME280;60402;48.082;11.628;2023-01-28T00:09:54;95641.72;;;-1.84;100.00
72409;BME280;60402;48.082;11.628;2023-01-28T00:12:19;95652.69;;;-1.72;100.00
72409;BME280;60402;48.082;11.628;2023-01-28T00:14:45;95652.41;;;-1.67;100.00
72409;BME280;60402;48.082;11.628;2023-01-28T00:17:12;95597.75;;;-1.86;100.00
72409;BME280;60402;48.082;11.628;2023-01-28T00:19:38;95579.19;;;-2.20;100.00
72409;BME280;60402;48.082;11.628;2023-01-28T00:22:03;95660.63;;;-1.70;100.00
72409;BME280;60402;48.082;11.628;2023-01-28T00:24:29;95645.94;;;-1.90;100.00
72409;BME280;60402;48.082;11.628;2023-01-28T00:26:55;95639.06;;;-1.96;100.00
72409;BME280;60402;48.082;11.628;2023-01-28T00:29:20;95661.31;;;-1.93;100.00
72409;BME280;60402;48.082;11.628;2023-01-28T00:31:45;95658.56;;;-1.58;100.00
72409;BME280;60402;48.082;11.628;2023-01-28T00:34:11;95630.94;;;-1.70;100.00
72409;BME280;60402;48.082;11.628;2023-01-28T00:36:36;95639.88;;;-1.61;100.00
72409;BME280;60402;48.082;11.628;2023-01-28T00:39:04;95636.44;;;-1.73;100.00
72409;BME280;60402;48.082;11.628;2023-01-28T00:41:29;95583.50;;;-2.03;100.00
72409;BME280;60402;48.082;11.628;2023-01-28T00:43:55;95657.53;;;-1.69;100.00
72409;BME280;60402;48.082;11.628;2023-01-28T00:46:21;95650.81;;;-1.68;100.00
72409;BME280;60402;48.082;11.628;2023-01-28T00:48:47;95654.75;;;-1.85;100.00
72409;BME280;60402;48.082;11.628;2023-01-28T00:51:14;95642.31;;;-1.75;100.00
72409;BME280;60402;48.082;11.628;2023-01-28T00:53:41;95644.38;;;-1.72;100.00
72409;BME280;60402;48.082;11.628;2023-01-28T00:56:08;95657.63;;;-1.81;100.00
72409;BME280;60402;48.082;11.628;2023-01-28T00:58:35;95624.53;;;-2.09;100.00
72409;BME280;60402;48.082;11.628;2023-01-28T01:01:12;95651.75;;;-1.95;100.00
72409;BME280;60402;48.082;11.628;2023-01-28T01:03:38;95627.94;;;-2.32;100.00
72409;BME280;60402;48.082;11.628;2023-01-28T01:06:04;95672.84;;;-2.07;100.00
72409;BME280;60402;48.082;11.628;2023-01-28T01:08:29;95665.34;;;-2.06;100.00
72409;BME280;60402;48.082;11.628;2023-01-28T01:11:02;95658.41;;;-2.16;100.00
72409;BME280;60402;48.082;11.628;2023-01-28T01:13:29;95645.06;;;-2.26;100.00
72409;BME280;60402;48.082;11.628;2023-01-28T01:16:10;95647.78;;;-2.29;100.00
72409;BME280;60402;48.082;11.628;2023-01-28T01:18:36;95663.38;;;-2.21;100.00
72409;BME280;60402;48.082;11.628;2023-01-28T01:21:25;95650.88;;;-2.31;100.00
72409;BME280;60402;48.082;11.628;2023-01-28T01:23:52;95668.84;;;-2.25;100.00
72409;BME280;60402;48.082;11.628;2023-01-28T01:26:17;95647.47;;;-2.40;100.00
72409;BME280;60402;48.082;11.628;2023-01-28T01:28:43;95647.75;;;-2.45;100.00
72409;BME280;60402;48.082;11.628;2023-01-28T01:31:14;95659.44;;;-2.36;100.00
72409;BME280;60402;48.082;11.628;2023-01-28T01:33:44;95665.25;;;-2.10;100.00
72409;BME280;60402;48.082;11.628;2023-01-28T01:36:12;95663.75;;;-2.23;100.00
72409;BME280;60402;48.082;11.628;2023-01-28T01:38:37;95669.75;;;-2.21;100.00
72409;BME280;60402;48.082;11.628;2023-01-28T01:41:04;95674.78;;;-2.07;100.00
72409;BME280;60402;48.082;11.628;2023-01-28T01:44:05;95664.63;;;-2.19;100.00
72409;BME280;60402;48.082;11.628;2023-01-28T01:49:06;95670.06;;;-2.22;100.00
72409;BME280;60402;48.082;11.628;2023-01-28T01:51:36;95687.22;;;-2.33;100.00
72409;BME280;60402;48.082;11.628;2023-01-28T01:54:03;95611.78;;;-2.77;100.00
72409;BME280;60402;48.082;11.628;2023-01-28T01:56:36;95685.00;;;-2.27;100.00
72409;BME280;60402;48.082;11.628;2023-01-28T01:59:03;95687.66;;;-2.46;100.00
72409;BME280;60402;48.082;11.628;2023-01-28T02:01:30;95674.44;;;-2.37;100.00
72409;BME280;60402;48.082;11.628;2023-01-28T02:06:31;95675.09;;;-2.44;100.00
72409;BME280;60402;48.082;11.628;2023-01-28T02:08:56;95655.88;;;-2.52;100.00
72409;BME280;60402;48.082;11.628;2023-01-28T02:11:26;95684.72;;;-2.22;100.00
72409;BME280;60402;48.082;11.628;2023-01-28T02:13:52;95692.50;;;-2.12;100.00
72409;BME280;60402;48.082;11.628;2023-01-28T02:16:19;95674.97;;;-2.32;100.00
72409;BME280;60402;48.082;11.628;2023-01-28T02:18:45;95684.28;;;-2.24;100.00
72409;BME280;60402;48.082;11.628;2023-01-28T02:21:33;95693.03;;;-2.38;100.00
72409;BME280;60402;48.082;11.628;2023-01-28T02:24:23;95698.13;;;-2.24;100.00
72409;BME280;60402;48.082;11.628;2023-01-28T02:29:26;95684.09;;;-2.47;100.00
72409;BME280;60402;48.082;11.628;2023-01-28T02:32:04;95703.34;;;-2.50;100.00
72409;BME280;60402;48.082;11.628;2023-01-28T02:37:08;95695.97;;;-2.46;100.00
72409;BME280;60402;48.082;11.628;2023-01-28T02:39:48;95684.72;;;-2.38;100.00
72409;BME280;60402;48.082;11.628;2023-01-28T02:42:31;95686.84;;;-2.47;100.00
72409;BME280;60402;48.082;11.628;2023-01-28T02:44:58;95700.72;;;-2.15;100.00
72409;BME280;60402;48.082;11.628;2023-01-28T02:47:23;95663.13;;;-2.48;100.00
72409;BME280;60402;48.082;11.628;2023-01-28T02:50:41;95698.94;;;-2.39;100.00
72409;BME280;60402;48.082;11.628;2023-01-28T02:53:23;95662.38;;;-2.45;100.00
72409;BME280;60402;48.082;11.628;2023-01-28T02:56:22;95703.75;;;-2.20;100.00
72409;BME280;60402;48.082;11.628;2023-01-28T03:01:55;95676.78;;;-2.39;100.00
72409;BME280;60402;48.082;11.628;2023-01-28T03:04:33;95690.97;;;-2.25;100.00
72409;BME280;60402;48.082;11.628;2023-01-28T03:07:03;95684.09;;;-2.31;100.00
72409;BME280;60402;48.082;11.628;2023-01-28T03:09:29;95705.59;;;-2.40;100.00
72409;BME280;60402;48.082;11.628;2023-01-28T03:11:56;95705.91;;;-2.29;100.00
72409;BME280;60402;48.082;11.628;2023-01-28T03:14:42;95708.28;;;-2.44;100.00
72409;BME280;60402;48.082;11.628;2023-01-28T03:20:36;95704.69;;;-2.60;100.00
72409;BME280;60402;48.082;11.628;2023-01-28T03:23:28;95706.84;;;-2.53;100.00
72409;BME280;60402;48.082;11.628;2023-01-28T03:26:14;95711.31;;;-2.49;100.00
72409;BME280;60402;48.082;11.628;2023-01-28T03:29:05;95678.81;;;-2.68;100.00
72409;BME280;60402;48.082;11.628;2023-01-28T03:31:52;95688.88;;;-2.60;100.00
72409;BME280;60402;48.082;11.628;2023-01-28T03:34:37;95708.41;;;-2.24;100.00
72409;BME280;60402;48.082;11.628;2023-01-28T03:37:22;95705.31;;;-2.51;100.00
72409;BME280;60402;48.082;11.628;2023-01-28T03:39:48;95707.94;;;-2.42;100.00
72409;BME280;60402;48.082;11.628;2023-01-28T03:42:14;95719.44;;;-2.40;100.00
72409;BME280;60402;48.082;11.628;2023-01-28T03:44:40;95711.66;;;-2.50;100.00
72409;BME280;60402;48.082;11.628;2023-01-28T03:47:20;95719.38;;;-2.44;100.00
72409;BME280;60402;48.082;11.628;2023-01-28T03:49:47;95724.63;;;-2.39;100.00
72409;BME280;60402;48.082;11.628;2023-01-28T03:52:27;95725.59;;;-2.31;100.00
72409;BME280;60402;48.082;11.628;2023-01-28T03:54:54;95700.97;;;-2.36;100.00
72409;BME280;60402;48.082;11.628;2023-01-28T03:57:22;95718.03;;;-2.18;100.00
72409;BME280;60402;48.082;11.628;2023-01-28T03:59:48;95703.91;;;-2.45;100.00
72409;BME280;60402;48.082;11.628;2023-01-28T04:02:14;95728.91;;;-2.41;100.00
72409;BME280;60402;48.082;11.628;2023-01-28T04:04:40;95691.06;;;-2.53;100.00
72409;BME280;60402;48.082;11.628;2023-01-28T04:07:07;95727.94;;;-2.33;100.00
72409;BME280;60402;48.082;11.628;2023-01-28T04:09:35;95715.31;;;-2.46;100.00
72409;BME280;60402;48.082;11.628;2023-01-28T04:12:01;95709.19;;;-2.40;100.00
72409;BME280;60402;48.082;11.628;2023-01-28T04:14:27;95729.81;;;-2.37;100.00
72409;BME280;60402;48.082;11.628;2023-01-28T04:16:52;95728.47;;;-2.27;100.00
72409;BME280;60402;48.082;11.628;2023-01-28T04:19:22;95733.22;;;-2.28;100.00
72409;BME280;60402;48.082;11.628;2023-01-28T04:21:48;95733.63;;;-2.42;100.00
72409;BME280;60402;48.082;11.628;2023-01-28T04:24:14;95731.34;;;-2.40;100.00
72409;BME280;60402;48.082;11.628;2023-01-28T04:26:40;95709.63;;;-2.53;100.00
72409;BME280;60402;48.082;11.628;2023-01-28T04:29:06;95751.16;;;-2.38;100.00
72409;BME280;60402;48.082;11.628;2023-01-28T04:31:31;95727.03;;;-2.37;100.00
72409;BME280;60402;48.082;11.628;2023-01-28T04:33:57;95741.28;;;-2.51;100.00
72409;BME280;60402;48.082;11.628;2023-01-28T04:36:23;95718.50;;;-2.60;100.00
72409;BME280;60402;48.082;11.628;2023-01-28T04:38:48;95745.66;;;-2.50;100.00
72409;BME280;60402;48.082;11.628;2023-01-28T04:41:14;95727.34;;;-2.70;100.00
72409;BME280;60402;48.082;11.628;2023-01-28T04:43:39;95755.66;;;-2.45;100.00
72409;BME280;60402;48.082;11.628;2023-01-28T04:46:05;95742.56;;;-2.48;100.00
72409;BME280;60402;48.082;11.628;2023-01-28T04:48:30;95757.59;;;-2.34;100.00
72409;BME280;60402;48.082;11.628;2023-01-28T04:50:56;95758.38;;;-2.49;100.00
72409;BME280;60402;48.082;11.628;2023-01-28T04:53:21;95743.47;;;-2.44;100.00
72409;BME280;60402;48.082;11.628;2023-01-28T04:55:47;95745.81;;;-2.30;100.00
72409;BME280;60402;48.082;11.628;2023-01-28T04:58:12;95767.31;;;-2.40;100.00
72409;BME280;60402;48.082;11.628;2023-01-28T05:00:37;95763.97;;;-2.45;100.00
72409;BME280;60402;48.082;11.628;2023-01-28T05:03:03;95762.09;;;-2.41;100.00
72409;BME280;60402;48.082;11.628;2023-01-28T05:05:28;95769.84;;;-2.19;100.00
72409;BME280;60402;48.082;11.628;2023-01-28T05:07:55;95756.84;;;-2.46;100.00
72409;BME280;60402;48.082;11.628;2023-01-28T05:10:21;95752.50;;;-2.60;100.00
72409;BME280;60402;48.082;11.628;2023-01-28T05:12:48;95772.19;;;-2.49;100.00
72409;BME280;60402;48.082;11.628;2023-01-28T05:15:17;95770.06;;;-2.40;100.00
72409;BME280;60402;48.082;11.628;2023-01-28T05:17:43;95770.06;;;-2.40;100.00
72409;BME280;60402;48.082;11.628;2023-01-28T05:20:10;95731.50;;;-2.48;100.00
72409;BME280;60402;48.082;11.628;2023-01-28T05:22:36;95765.09;;;-2.18;100.00
72409;BME280;60402;48.082;11.628;2023-01-28T05:25:01;95775.66;;;-2.08;100.00
72409;BME280;60402;48.082;11.628;2023-01-28T05:27:29;95764.03;;;-1.98;100.00
72409;BME280;60402;48.082;11.628;2023-01-28T05:29:54;95764.56;;;-2.08;100.00
72409;BME280;60402;48.082;11.628;2023-01-28T05:32:19;95748.38;;;-2.22;100.00
72409;BME280;60402;48.082;11.628;2023-01-28T05:34:45;95768.13;;;-2.39;100.00
72409;BME280;60402;48.082;11.628;2023-01-28T05:37:10;95762.25;;;-2.50;100.00
72409;BME280;60402;48.082;11.628;2023-01-28T05:39:35;95769.31;;;-2.52;100.00
72409;BME280;60402;48.082;11.628;2023-01-28T05:42:01;95778.72;;;-2.41;100.00
72409;BME280;60402;48.082;11.628;2023-01-28T05:44:26;95786.44;;;-2.35;100.00
72409;BME280;60402;48.082;11.628;2023-01-28T05:46:51;95781.59;;;-2.38;100.00
72409;BME280;60402;48.082;11.628;2023-01-28T05:49:16;95795.81;;;-2.23;100.00
72409;BME280;60402;48.082;11.628;2023-01-28T05:51:42;95799.28;;;-2.26;100.00
72409;BME280;60402;48.082;11.628;2023-01-28T05:54:08;95772.00;;;-2.56;100.00
72409;BME280;60402;48.082;11.628;2023-01-28T05:56:34;95804.75;;;-2.30;100.00
72409;BME280;60402;48.082;11.628;2023-01-28T05:59:01;95806.50;;;-2.38;100.00
72409;BME280;60402;48.082;11.628;2023-01-28T06:01:26;95772.34;;;-2.58;100.00
72409;BME280;60402;48.082;11.628;2023-01-28T06:03:51;95782.81;;;-2.51;100.00
72409;BME280;60402;48.082;11.628;2023-01-28T06:06:16;95778.47;;;-2.64;100.00
72409;BME280;60402;48.082;11.628;2023-01-28T06:08:42;95784.50;;;-2.46;100.00
72409;BME280;60402;48.082;11.628;2023-01-28T06:11:07;95793.03;;;-2.23;100.00
72409;BME280;60402;48.082;11.628;2023-01-28T06:13:33;95819.72;;;-2.31;100.00
72409;BME280;60402;48.082;11.628;2023-01-28T06:15:58;95786.69;;;-2.40;100.00
72409;BME280;60402;48.082;11.628;2023-01-28T06:18:23;95809.53;;;-2.43;100.00
72409;BME280;60402;48.082;11.628;2023-01-28T06:20:49;95790.81;;;-2.62;100.00
72409;BME280;60402;48.082;11.628;2023-01-28T06:23:15;95806.00;;;-2.55;100.00
72409;BME280;60402;48.082;11.628;2023-01-28T06:25:40;95812.41;;;-2.23;100.00
72409;BME280;60402;48.082;11.628;2023-01-28T06:28:06;95796.19;;;-2.25;100.00
72409;BME280;60402;48.082;11.628;2023-01-28T06:30:31;95785.19;;;-2.49;100.00
72409;BME280;60402;48.082;11.628;2023-01-28T06:32:56;95828.22;;;-2.24;100.00
72409;BME280;60402;48.082;11.628;2023-01-28T06:35:22;95829.91;;;-2.35;100.00
72409;BME280;60402;48.082;11.628;2023-01-28T06:37:47;95819.50;;;-2.54;100.00
72409;BME280;60402;48.082;11.628;2023-01-28T06:40:13;95826.66;;;-2.37;100.00
72409;BME280;60402;48.082;11.628;2023-01-28T06:42:38;95833.50;;;-2.19;100.00
72409;BME280;60402;48.082;11.628;2023-01-28T06:45:04;95829.41;;;-2.25;100.00
72409;BME280;60402;48.082;11.628;2023-01-28T06:47:29;95833.50;;;-2.47;100.00
72409;BME280;60402;48.082;11.628;2023-01-28T06:49:54;95806.13;;;-2.64;100.00
72409;BME280;60402;48.082;11.628;2023-01-28T06:52:20;95843.13;;;-2.28;100.00
72409;BME280;60402;48.082;11.628;2023-01-28T06:54:45;95822.09;;;-2.45;100.00
72409;BME280;60402;48.082;11.628;2023-01-28T06:57:10;95814.03;;;-2.22;100.00
72409;BME280;60402;48.082;11.628;2023-01-28T06:59:36;95812.16;;;-2.18;100.00
72409;BME280;60402;48.082;11.628;2023-01-28T07:02:01;95807.59;;;-2.54;100.00
72409;BME280;60402;48.082;11.628;2023-01-28T07:04:26;95838.00;;;-2.42;100.00
72409;BME280;60402;48.082;11.628;2023-01-28T07:06:51;95824.00;;;-2.62;100.00
72409;BME280;60402;48.082;11.628;2023-01-28T07:09:17;95841.72;;;-2.50;100.00
72409;BME280;60402;48.082;11.628;2023-01-28T07:11:42;95817.19;;;-2.64;100.00
72409;BME280;60402;48.082;11.628;2023-01-28T07:14:07;95850.47;;;-2.48;100.00
72409;BME280;60402;48.082;11.628;2023-01-28T07:16:32;95844.13;;;-2.21;100.00
72409;BME280;60402;48.082;11.628;2023-01-28T07:18:58;95841.59;;;-2.26;100.00
72409;BME280;60402;48.082;11.628;2023-01-28T07:21:23;95830.44;;;-2.29;100.00
72409;BME280;60402;48.082;11.628;2023-01-28T07:23:48;95824.84;;;-2.17;100.00
72409;BME280;60402;48.082;11.628;2023-01-28T07:26:14;95819.06;;;-2.40;100.00
72409;BME280;60402;48.082;11.628;2023-01-28T07:28:39;95848.53;;;-2.04;100.00
72409;BME280;60402;48.082;11.628;2023-01-28T07:31:05;95866.22;;;-2.09;100.00
72409;BME280;60402;48.082;11.628;2023-01-28T07:33:30;95853.31;;;-2.17;100.00
72409;BME280;60402;48.082;11.628;2023-01-28T07:35:55;95871.75;;;-2.09;100.00
72409;BME280;60402;48.082;11.628;2023-01-28T07:38:21;95841.59;;;-2.26;100.00
72409;BME280;60402;48.082;11.628;2023-01-28T07:40:46;95875.44;;;-1.89;100.00
72409;BME280;60402;48.082;11.628;2023-01-28T07:43:12;95863.31;;;-1.84;100.00
72409;BME280;60402;48.082;11.628;2023-01-28T07:45:37;95871.72;;;-1.81;100.00
72409;BME280;60402;48.082;11.628;2023-01-28T07:48:05;95886.47;;;-1.92;100.00
72409;BME280;60402;48.082;11.628;2023-01-28T07:50:32;95890.88;;;-2.03;100.00
72409;BME280;60402;48.082;11.628;2023-01-28T07:53:02;95872.63;;;-2.20;100.00
72409;BME280;60402;48.082;11.628;2023-01-28T07:55:27;95863.28;;;-2.00;100.00
72409;BME280;60402;48.082;11.628;2023-01-28T07:57:54;95875.19;;;-1.84;100.00
72409;BME280;60402;48.082;11.628;2023-01-28T08:00:25;95896.50;;;-1.56;100.00
72409;BME280;60402;48.082;11.628;2023-01-28T08:02:55;95898.91;;;-1.70;100.00
72409;BME280;60402;48.082;11.628;2023-01-28T08:05:21;95890.31;;;-1.81;100.00
72409;BME280;60402;48.082;11.628;2023-01-28T08:07:47;95916.44;;;-1.94;100.00
72409;BME280;60402;48.082;11.628;2023-01-28T08:10:13;95916.34;;;-1.98;100.00
72409;BME280;60402;48.082;11.628;2023-01-28T08:12:39;95895.47;;;-2.23;100.00
72409;BME280;60402;48.082;11.628;2023-01-28T08:15:05;95908.56;;;-2.08;100.00
72409;BME280;60402;48.082;11.628;2023-01-28T08:17:30;95894.63;;;-2.12;100.00
72409;BME280;60402;48.082;11.628;2023-01-28T08:19:56;95909.06;;;-1.90;100.00
72409;BME280;60402;48.082;11.628;2023-01-28T08:22:25;95902.56;;;-1.82;100.00
72409;BME280;60402;48.082;11.628;2023-01-28T08:24:51;95901.09;;;-1.92;100.00
72409;BME280;60402;48.082;11.628;2023-01-28T08:27:16;95900.31;;;-2.20;100.00
72409;BME280;60402;48.082;11.628;2023-01-28T08:29:42;95920.09;;;-2.06;100.00
72409;BME280;60402;48.082;11.628;2023-01-28T08:32:08;95924.38;;;-2.09;100.00
72409;BME280;60402;48.082;11.628;2023-01-28T08:34:33;95903.72;;;-2.39;100.00
72409;BME280;60402;48.082;11.628;2023-01-28T08:36:59;95917.38;;;-2.18;100.00
72409;BME280;60402;48.082;11.628;2023-01-28T08:39:24;95895.28;;;-2.30;100.00
72409;BME280;60402;48.082;11.628;2023-01-28T08:41:49;95940.03;;;-2.00;100.00
72409;BME280;60402;48.082;11.628;2023-01-28T08:44:15;95912.06;;;-2.23;100.00
72409;BME280;60402;48.082;11.628;2023-01-28T08:46:40;95928.69;;;-2.23;100.00
72409;BME280;60402;48.082;11.628;2023-01-28T08:49:05;95925.13;;;-2.24;100.00
72409;BME280;60402;48.082;11.628;2023-01-28T08:51:30;95939.38;;;-2.10;100.00
72409;BME280;60402;48.082;11.628;2023-01-28T08:53:56;95920.81;;;-2.21;100.00
72409;BME280;60402;48.082;11.628;2023-01-28T08:56:21;95935.53;;;-2.05;100.00
72409;BME280;60402;48.082;11.628;2023-01-28T08:58:46;95915.25;;;-2.09;100.00
72409;BME280;60402;48.082;11.628;2023-01-28T09:01:12;95921.28;;;-2.19;100.00
72409;BME280;60402;48.082;11.628;2023-01-28T09:03:37;95947.16;;;-1.71;100.00
72409;BME280;60402;48.082;11.628;2023-01-28T09:06:03;95940.66;;;-1.63;100.00
72409;BME280;60402;48.082;11.628;2023-01-28T09:08:29;95941.47;;;-1.63;100.00
72409;BME280;60402;48.082;11.628;2023-01-28T09:10:55;95938.56;;;-1.82;100.00
72409;BME280;60402;48.082;11.628;2023-01-28T09:13:21;95957.16;;;-1.83;100.00
72409;BME280;60402;48.082;11.628;2023-01-28T09:15:46;95954.91;;;-1.93;100.00
72409;BME280;60402;48.082;11.628;2023-01-28T09:18:12;95960.72;;;-1.82;100.00
72409;BME280;60402;48.082;11.628;2023-01-28T09:20:37;95915.09;;;-2.00;100.00
72409;BME280;60402;48.082;11.628;2023-01-28T09:23:03;95927.34;;;-2.01;100.00
72409;BME280;60402;48.082;11.628;2023-01-28T09:25:29;95915.50;;;-1.86;100.00
72409;BME280;60402;48.082;11.628;2023-01-28T09:27:54;95966.31;;;-1.66;100.00
72409;BME280;60402;48.082;11.628;2023-01-28T09:30:19;95968.72;;;-1.65;100.00
72409;BME280;60402;48.082;11.628;2023-01-28T09:32:49;95959.75;;;-1.30;99.96
72409;BME280;60402;48.082;11.628;2023-01-28T09:35:14;95949.22;;;-1.24;99.24
72409;BME280;60402;48.082;11.628;2023-01-28T09:37:40;95938.19;;;-1.52;99.50
72409;BME280;60402;48.082;11.628;2023-01-28T09:40:06;95933.84;;;-1.66;100.00
72409;BME280;60402;48.082;11.628;2023-01-28T09:47:52;95959.22;;;-1.04;98.54
72409;BME280;60402;48.082;11.628;2023-01-28T09:50:30;95958.34;;;-0.92;97.97
72409;BME280;60402;48.082;11.628;2023-01-28T09:53:02;95948.94;;;-1.04;98.08
72409;BME280;60402;48.082;11.628;2023-01-28T09:55:35;95955.75;;;-1.01;98.13
72409;BME280;60402;48.082;11.628;2023-01-28T09:58:05;95922.91;;;-1.15;98.11
72409;BME280;60402;48.082;11.628;2023-01-28T10:11:57;95936.44;;;-0.46;94.42
72409;BME280;60402;48.082;11.628;2023-01-28T10:17:41;95937.66;;;-0.44;92.47
72409;BME280;60402;48.082;11.628;2023-01-28T10:22:54;95938.28;;;-0.35;92.67
72409;BME280;60402;48.082;11.628;2023-01-28T10:25:22;95931.78;;;-0.23;90.86
72409;BME280;60402;48.082;11.628;2023-01-28T10:27:49;95899.69;;;-0.20;91.51
72409;BME280;60402;48.082;11.628;2023-01-28T10:30:18;95939.75;;;0.17;90.92
72409;BME280;60402;48.082;11.628;2023-01-28T10:32:58;95919.19;;;-0.36;89.14
72409;BME280;60402;48.082;11.628;2023-01-28T10:35:25;95916.28;;;-0.24;89.90
72409;BME280;60402;48.082;11.628;2023-01-28T10:37:59;95935.22;;;0.09;88.99
72409;BME280;60402;48.082;11.628;2023-01-28T10:40:26;95933.13;;;0.64;87.36
72409;BME280;60402;48.082;11.628;2023-01-28T10:42:51;95929.44;;;0.57;85.10
72409;BME280;60402;48.082;11.628;2023-01-28T10:45:21;95923.69;;;0.69;84.81
72409;BME280;60402;48.082;11.628;2023-01-28T10:48:33;95934.16;;;0.75;83.64
72409;BME280;60402;48.082;11.628;2023-01-28T10:50:32;95917.31;;;0.68;85.12
72409;BME280;60402;48.082;11.628;2023-01-28T10:53:01;95918.97;;;0.73;82.35
72409;BME280;60402;48.082;11.628;2023-01-28T10:55:35;95914.72;;;1.02;83.05
72409;BME280;60402;48.082;11.628;2023-01-28T10:58:17;95931.66;;;0.93;82.59
72409;BME280;60402;48.082;11.628;2023-01-28T11:00:44;95907.13;;;0.99;83.09
72409;BME280;60402;48.082;11.628;2023-01-28T11:03:17;95917.13;;;1.04;82.52
72409;BME280;60402;48.082;11.628;2023-01-28T11:05:50;95901.03;;;0.93;84.32
72409;BME280;60402;48.082;11.628;2023-01-28T11:08:17;95926.72;;;1.06;83.33
72409;BME280;60402;48.082;11.628;2023-01-28T11:10:43;95907.22;;;1.06;83.72
72409;BME280;60402;48.082;11.628;2023-01-28T11:13:24;95921.09;;;0.37;83.47
72409;BME280;60402;48.082;11.628;2023-01-28T11:16:06;95932.78;;;0.46;85.82
72409;BME280;60402;48.082;11.628;2023-01-28T11:18:49;95900.00;;;0.56;84.37
72409;BME280;60402;48.082;11.628;2023-01-28T11:21:19;95900.19;;;0.43;84.53
72409;BME280;60402;48.082;11.628;2023-01-28T11:23:52;95890.28;;;-0.16;85.14
72409;BME280;60402;48.082;11.628;2023-01-28T11:26:24;95931.50;;;0.02;85.61
72409;BME280;60402;48.082;11.628;2023-01-28T11:28:50;95925.34;;;-0.27;86.11
72409;BME280;60402;48.082;11.628;2023-01-28T11:31:18;95928.94;;;-0.07;86.02
72409;BME280;60402;48.082;11.628;2023-01-28T11:33:48;95922.22;;;0.56;84.38
72409;BME280;60402;48.082;11.628;2023-01-28T11:36:17;95915.63;;;0.64;82.91
72409;BME280;60402;48.082;11.628;2023-01-28T11:39:01;95939.97;;;0.47;82.89
72409;BME280;60402;48.082;11.628;2023-01-28T11:41:34;95926.75;;;0.21;83.47
72409;BME280;60402;48.082;11.628;2023-01-28T11:49:28;95920.91;;;0.69;83.94
72409;BME280;60402;48.082;11.628;2023-01-28T11:57:25;95930.59;;;1.01;83.66
72409;BME280;60402;48.082;11.628;2023-01-28T11:59:58;95915.78;;;0.71;83.01
72409;BME280;60402;48.082;11.628;2023-01-28T12:03:04;95930.59;;;1.01;82.41
72409;BME280;60402;48.082;11.628;2023-01-28T12:05:56;95926.63;;;1.02;80.76
72409;BME280;60402;48.082;11.628;2023-01-28T12:08:31;95889.22;;;0.31;83.17
72409;BME280;60402;48.082;11.628;2023-01-28T12:11:17;95932.50;;;0.74;84.13
72409;BME280;60402;48.082;11.628;2023-01-28T12:14:52;95932.69;;;0.20;83.69
72409;BME280;60402;48.082;11.628;2023-01-28T12:17:41;95926.91;;;0.71;84.90
72409;BME280;60402;48.082;11.628;2023-01-28T12:28:10;95939.22;;;0.50;81.77
72409;BME280;60402;48.082;11.628;2023-01-28T12:41:40;95906.47;;;0.40;81.47
72409;BME280;60402;48.082;11.628;2023-01-28T12:44:11;95926.75;;;0.64;81.65
72409;BME280;60402;48.082;11.628;2023-01-28T12:46:49;95927.75;;;0.52;80.21
72409;BME280;60402;48.082;11.628;2023-01-28T12:49:23;95933.09;;;0.41;82.10
72409;BME280;60402;48.082;11.628;2023-01-28T12:54:21;95917.25;;;0.65;81.95
72409;BME280;60402;48.082;11.628;2023-01-28T12:56:51;95946.47;;;0.55;79.05
72409;BME280;60402;48.082;11.628;2023-01-28T12:59:26;95938.16;;;0.78;78.12
72409;BME280;60402;48.082;11.628;2023-01-28T13:02:20;95933.88;;;0.61;79.83
72409;BME280;60402;48.082;11.628;2023-01-28T13:05:21;95937.84;;;0.41;80.16
72409;BME280;60402;48.082;11.628;2023-01-28T13:08:37;95914.91;;;0.24;80.46
72409;BME280;60402;48.082;11.628;2023-01-28T13:10:44;95935.22;;;0.48;80.87
72409;BME280;60402;48.082;11.628;2023-01-28T13:13:33;95940.44;;;0.11;82.46
72409;BME280;60402;48.082;11.628;2023-01-28T13:16:00;95943.59;;;0.51;82.74
72409;BME280;60402;48.082;11.628;2023-01-28T13:18:32;95940.25;;;0.62;81.72
72409;BME280;60402;48.082;11.628;2023-01-28T13:21:03;95918.03;;;0.65;81.89
72409;BME280;60402;48.082;11.628;2023-01-28T13:25:55;95932.16;;;0.34;82.98
72409;BME280;60402;48.082;11.628;2023-01-28T13:28:31;95940.56;;;0.37;82.82
72409;BME280;60402;48.082;11.628;2023-01-28T13:31:10;95937.28;;;0.32;82.98
72409;BME280;60402;48.082;11.628;2023-01-28T13:34:01;95956.91;;;0.19;82.63
72409;BME280;60402;48.082;11.628;2023-01-28T13:36:33;95948.31;;;0.28;81.13
72409;BME280;60402;48.082;11.628;2023-01-28T13:41:55;95939.97;;;0.47;81.15
72409;BME280;60402;48.082;11.628;2023-01-28T13:44:33;95921.50;;;0.16;81.26
72409;BME280;60402;48.082;11.628;2023-01-28T13:49:39;95927.41;;;0.34;82.87
72409;BME280;60402;48.082;11.628;2023-01-28T13:54:58;95970.31;;;0.37;83.10
72409;BME280;60402;48.082;11.628;2023-01-28T14:10:54;95973.09;;;-0.02;89.08
72409;BME280;60402;48.082;11.628;2023-01-28T14:16:21;95981.22;;;0.07;88.49
72409;BME280;60402;48.082;11.628;2023-01-28T14:18:50;95963.16;;;-0.22;88.07
72409;BME280;60402;48.082;11.628;2023-01-28T14:21:19;95986.16;;;-0.22;89.48
72409;BME280;60402;48.082;11.628;2023-01-28T14:24:03;95965.25;;;-0.35;88.92
72409;BME280;60402;48.082;11.628;2023-01-28T14:26:57;95973.66;;;-0.47;88.78
72409;BME280;60402;48.082;11.628;2023-01-28T14:32:22;95960.34;;;-0.42;89.46
72409;BME280;60402;48.082;11.628;2023-01-28T14:34:51;95990.97;;;-0.19;89.53
72409;BME280;60402;48.082;11.628;2023-01-28T14:37:18;95988.00;;;-0.45;89.44
72409;BME280;60402;48.082;11.628;2023-01-28T14:39:51;96003.69;;;-0.37;89.38